sensor_id;sensor_type;location;lat;lon;timestamp;pressure;altitude;pressure_sealevel;temperature;humidity
33422;BME280;19763;55.798;37.782;2022-11-04T00:01:14;99618.91;;;0.73;82.23
33422;BME280;19763;55.798;37.782;2022-11-04T00:03:39;99616.28;;;0.68;82.42
33422;BME280;19763;55.798;37.782;2022-11-04T00:06:05;99611.78;;;0.55;83.67
33422;BME280;19763;55.798;37.782;2022-11-04T00:08:31;99600.81;;;0.59;83.81
33422;BME280;19763;55.798;37.782;2022-11-04T00:10:58;99610.28;;;0.66;83.96
33422;BME280;19763;55.798;37.782;2022-11-04T00:13:43;99621.50;;;0.76;83.54
33422;BME280;19763;55.798;37.782;2022-11-04T00:16:09;99618.94;;;0.76;83.26
33422;BME280;19763;55.798;37.782;2022-11-04T00:18:54;99608.66;;;0.70;83.96
33422;BME280;19763;55.798;37.782;2022-11-04T00:21:19;99625.06;;;0.86;83.93
33422;BME280;19763;55.798;37.782;2022-11-04T00:24:04;99621.56;;;0.81;84.12
33422;BME280;19763;55.798;37.782;2022-11-04T00:26:49;99615.53;;;0.74;83.27
33422;BME280;19763;55.798;37.782;2022-11-04T00:29:33;99616.34;;;0.72;83.46
33422;BME280;19763;55.798;37.782;2022-11-04T00:31:58;99619.03;;;0.81;83.85
33422;BME280;19763;55.798;37.782;2022-11-04T00:34:43;99621.53;;;0.79;83.49
33422;BME280;19763;55.798;37.782;2022-11-04T00:37:09;99620.81;;;0.86;83.40
33422;BME280;19763;55.798;37.782;2022-11-04T00:39:34;99612.94;;;0.73;82.51
33422;BME280;19763;55.798;37.782;2022-11-04T00:42:00;99610.47;;;0.77;82.33
33422;BME280;19763;55.798;37.782;2022-11-04T00:44:25;99606.22;;;0.76;82.54
33422;BME280;19763;55.798;37.782;2022-11-04T00:46:51;99610.34;;;0.71;82.72
33422;BME280;19763;55.798;37.782;2022-11-04T00:49:17;99610.31;;;0.68;83.18
33422;BME280;19763;55.798;37.782;2022-11-04T00:51:42;99614.59;;;0.71;82.44
33422;BME280;19763;55.798;37.782;2022-11-04T00:54:08;99609.56;;;0.75;82.96
33422;BME280;19763;55.798;37.782;2022-11-04T00:56:37;99593.25;;;0.64;82.24
33422;BME280;19763;55.798;37.782;2022-11-04T00:59:02;99605.38;;;0.77;82.22
33422;BME280;19763;55.798;37.782;2022-11-04T01:01:28;99610.34;;;0.71;82.20
33422;BME280;19763;55.798;37.782;2022-11-04T01:03:54;99608.72;;;0.73;82.44
33422;BME280;19763;55.798;37.782;2022-11-04T01:06:22;99582.91;;;0.55;82.67
33422;BME280;19763;55.798;37.782;2022-11-04T01:08:48;99607.81;;;0.73;82.96
33422;BME280;19763;55.798;37.782;2022-11-04T01:11:18;99606.22;;;0.78;82.94
33422;BME280;19763;55.798;37.782;2022-11-04T01:13:44;99601.19;;;0.81;82.50
33422;BME280;19763;55.798;37.782;2022-11-04T01:16:11;99604.66;;;0.84;82.39
33422;BME280;19763;55.798;37.782;2022-11-04T01:18:38;99607.91;;;0.76;82.05
33422;BME280;19763;55.798;37.782;2022-11-04T01:21:05;99594.38;;;0.80;82.46
33422;BME280;19763;55.798;37.782;2022-11-04T01:23:33;99601.88;;;0.72;82.37
33422;BME280;19763;55.798;37.782;2022-11-04T01:25:59;99587.41;;;0.71;81.85
33422;BME280;19763;55.798;37.782;2022-11-04T01:28:25;99602.94;;;0.85;82.26
33422;BME280;19763;55.798;37.782;2022-11-04T01:30:50;99610.53;;;0.80;81.91
33422;BME280;19763;55.798;37.782;2022-11-04T01:33:16;99608.81;;;0.79;82.05
33422;BME280;19763;55.798;37.782;2022-11-04T01:35:42;99598.56;;;0.76;81.66
33422;BME280;19763;55.798;37.782;2022-11-04T01:38:07;99607.19;;;0.84;82.35
33422;BME280;19763;55.798;37.782;2022-11-04T01:40:38;99612.31;;;0.86;82.27
33422;BME280;19763;55.798;37.782;2022-11-04T01:43:13;99609.78;;;0.86;82.54
33422;BME280;19763;55.798;37.782;2022-11-04T01:45:42;99606.13;;;0.70;82.37
33422;BME280;19763;55.798;37.782;2022-11-04T01:48:30;99602.84;;;0.77;82.51
33422;BME280;19763;55.798;37.782;2022-11-04T01:50:58;99616.53;;;0.85;81.49
33422;BME280;19763;55.798;37.782;2022-11-04T01:53:31;99594.28;;;0.75;81.94
33422;BME280;19763;55.798;37.782;2022-11-04T01:56:04;99591.66;;;0.71;81.09
33422;BME280;19763;55.798;37.782;2022-11-04T01:58:47;99594.31;;;0.77;81.25
33422;BME280;19763;55.798;37.782;2022-11-04T02:01:14;99602.88;;;0.80;81.25
33422;BME280;19763;55.798;37.782;2022-11-04T02:03:44;99607.94;;;0.79;81.11
33422;BME280;19763;55.798;37.782;2022-11-04T02:06:11;99608.81;;;0.81;81.47
33422;BME280;19763;55.798;37.782;2022-11-04T02:08:38;99609.69;;;0.80;81.62
33422;BME280;19763;55.798;37.782;2022-11-04T02:11:05;99612.25;;;0.81;81.93
33422;BME280;19763;55.798;37.782;2022-11-04T02:13:32;99596.88;;;0.78;81.46
33422;BME280;19763;55.798;37.782;2022-11-04T02:35:16;99591.66;;;0.69;80.89
33422;BME280;19763;55.798;37.782;2022-11-04T02:40:53;99559.91;;;0.50;79.89
33422;BME280;19763;55.798;37.782;2022-11-04T02:43:24;99601.16;;;0.79;79.59
33422;BME280;19763;55.798;37.782;2022-11-04T02:46:05;99585.72;;;0.70;80.14
33422;BME280;19763;55.798;37.782;2022-11-04T02:48:44;99613.06;;;0.80;79.70
33422;BME280;19763;55.798;37.782;2022-11-04T02:51:17;99605.41;;;0.79;79.74
33422;BME280;19763;55.798;37.782;2022-11-04T02:53:59;99589.13;;;0.71;80.63
33422;BME280;19763;55.798;37.782;2022-11-04T02:56:28;99612.28;;;0.84;80.46
33422;BME280;19763;55.798;37.782;2022-11-04T02:58:58;99613.78;;;0.72;80.42
33422;BME280;19763;55.798;37.782;2022-11-04T03:01:29;99610.34;;;0.71;79.75
33422;BME280;19763;55.798;37.782;2022-11-04T03:04:05;99590.63;;;0.59;80.11
33422;BME280;19763;55.798;37.782;2022-11-04T03:06:33;99589.88;;;0.65;79.92
33422;BME280;19763;55.798;37.782;2022-11-04T03:09:01;99609.34;;;0.61;79.80
33422;BME280;19763;55.798;37.782;2022-11-04T03:11:29;99606.94;;;0.69;80.10
33422;BME280;19763;55.798;37.782;2022-11-04T03:14:05;99597.53;;;0.66;80.38
33422;BME280;19763;55.798;37.782;2022-11-04T03:16:41;99583.09;;;0.67;79.13
33422;BME280;19763;55.798;37.782;2022-11-04T03:22:34;99582.19;;;0.62;79.74
33422;BME280;19763;55.798;37.782;2022-11-04T03:25:03;99585.38;;;0.50;79.60
33422;BME280;19763;55.798;37.782;2022-11-04T03:30:21;99606.63;;;0.52;78.56
33422;BME280;19763;55.798;37.782;2022-11-04T03:35:29;99606.50;;;0.44;79.71
33422;BME280;19763;55.798;37.782;2022-11-04T03:37:56;99586.94;;;0.42;79.69
33422;BME280;19763;55.798;37.782;2022-11-04T03:40:21;99598.13;;;0.50;78.60
33422;BME280;19763;55.798;37.782;2022-11-04T03:42:55;99594.69;;;0.49;79.41
33422;BME280;19763;55.798;37.782;2022-11-04T03:45:22;99608.44;;;0.58;78.97
33422;BME280;19763;55.798;37.782;2022-11-04T03:47:49;99599.81;;;0.51;78.78
33422;BME280;19763;55.798;37.782;2022-11-04T03:50:28;99596.38;;;0.47;78.99
33422;BME280;19763;55.798;37.782;2022-11-04T03:52:55;99610.97;;;0.58;78.73
33422;BME280;19763;55.798;37.782;2022-11-04T03:55:33;99616.06;;;0.56;79.09
33422;BME280;19763;55.798;37.782;2022-11-04T03:58:23;99608.38;;;0.55;77.94
33422;BME280;19763;55.798;37.782;2022-11-04T04:01:01;99586.06;;;0.43;79.18
33422;BME280;19763;55.798;37.782;2022-11-04T04:03:38;99592.00;;;0.40;79.85
33422;BME280;19763;55.798;37.782;2022-11-04T04:06:09;99605.88;;;0.58;79.51
33422;BME280;19763;55.798;37.782;2022-11-04T04:08:55;99603.34;;;0.58;79.81
33422;BME280;19763;55.798;37.782;2022-11-04T04:14:27;99611.00;;;0.59;80.14
33422;BME280;19763;55.798;37.782;2022-11-04T04:17:04;99603.31;;;0.56;79.49
33422;BME280;19763;55.798;37.782;2022-11-04T04:19:32;99612.66;;;0.56;78.72
33422;BME280;19763;55.798;37.782;2022-11-04T04:22:03;99605.69;;;0.47;77.63
33422;BME280;19763;55.798;37.782;2022-11-04T04:24:34;99618.28;;;0.39;77.85
33422;BME280;19763;55.798;37.782;2022-11-04T04:27:20;99609.97;;;0.48;77.04
33422;BME280;19763;55.798;37.782;2022-11-04T04:29:58;99598.91;;;0.47;77.78
33422;BME280;19763;55.798;37.782;2022-11-04T04:32:27;99617.84;;;0.62;77.98
33422;BME280;19763;55.798;37.782;2022-11-04T04:34:54;99616.09;;;0.59;77.76
33422;BME280;19763;55.798;37.782;2022-11-04T04:37:40;99617.03;;;0.63;77.77
33422;BME280;19763;55.798;37.782;2022-11-04T04:40:09;99589.66;;;0.52;77.53
33422;BME280;19763;55.798;37.782;2022-11-04T04:42:55;99620.22;;;0.52;78.97
33422;BME280;19763;55.798;37.782;2022-11-04T04:45:41;99594.38;;;0.32;79.94
33422;BME280;19763;55.798;37.782;2022-11-04T04:48:10;99599.66;;;0.40;79.34
33422;BME280;19763;55.798;37.782;2022-11-04T04:50:40;99623.16;;;0.28;80.49
33422;BME280;19763;55.798;37.782;2022-11-04T04:53:06;99630.59;;;0.16;80.10
33422;BME280;19763;55.798;37.782;2022-11-04T04:55:32;99625.84;;;0.33;80.82
33422;BME280;19763;55.798;37.782;2022-11-04T04:57:58;99620.75;;;0.34;79.86
33422;BME280;19763;55.798;37.782;2022-11-04T05:00:24;99626.66;;;0.32;80.46
33422;BME280;19763;55.798;37.782;2022-11-04T05:02:50;99632.84;;;0.45;80.57
33422;BME280;19763;55.798;37.782;2022-11-04T05:05:16;99631.09;;;0.44;80.41
33422;BME280;19763;55.798;37.782;2022-11-04T05:07:42;99632.00;;;0.44;80.92
33422;BME280;19763;55.798;37.782;2022-11-04T05:10:10;99636.16;;;0.41;81.65
33422;BME280;19763;55.798;37.782;2022-11-04T05:12:37;99637.91;;;0.43;80.90
33422;BME280;19763;55.798;37.782;2022-11-04T05:15:21;99630.16;;;0.37;81.06
33422;BME280;19763;55.798;37.782;2022-11-04T05:17:47;99627.00;;;0.50;81.47
33422;BME280;19763;55.798;37.782;2022-11-04T05:20:12;99627.75;;;0.46;80.23
33422;BME280;19763;55.798;37.782;2022-11-04T05:22:39;99638.19;;;0.59;80.76
33422;BME280;19763;55.798;37.782;2022-11-04T05:25:05;99638.25;;;0.63;80.78
33422;BME280;19763;55.798;37.782;2022-11-04T05:27:30;99638.31;;;0.66;80.60
33422;BME280;19763;55.798;37.782;2022-11-04T05:29:56;99637.53;;;0.69;81.02
33422;BME280;19763;55.798;37.782;2022-11-04T05:32:22;99635.75;;;0.65;80.61
33422;BME280;19763;55.798;37.782;2022-11-04T05:34:47;99640.78;;;0.62;80.05
33422;BME280;19763;55.798;37.782;2022-11-04T05:37:13;99644.34;;;0.70;79.70
33422;BME280;19763;55.798;37.782;2022-11-04T05:39:38;99640.03;;;0.67;79.71
33422;BME280;19763;55.798;37.782;2022-11-04T05:42:04;99652.88;;;0.74;79.20
33422;BME280;19763;55.798;37.782;2022-11-04T05:44:29;99646.06;;;0.73;79.44
33422;BME280;19763;55.798;37.782;2022-11-04T05:46:55;99649.50;;;0.73;79.80
33422;BME280;19763;55.798;37.782;2022-11-04T05:49:21;99651.31;;;0.80;79.49
33422;BME280;19763;55.798;37.782;2022-11-04T05:51:46;99653.81;;;0.77;79.96
33422;BME280;19763;55.798;37.782;2022-11-04T05:54:12;99651.34;;;0.83;79.50
33422;BME280;19763;55.798;37.782;2022-11-04T05:56:37;99662.47;;;0.87;79.87
33422;BME280;19763;55.798;37.782;2022-11-04T05:59:03;99660.03;;;0.93;79.64
33422;BME280;19763;55.798;37.782;2022-11-04T06:01:37;99636.06;;;0.83;79.39
33422;BME280;19763;55.798;37.782;2022-11-04T06:04:04;99660.88;;;0.94;79.29
33422;BME280;19763;55.798;37.782;2022-11-04T06:06:32;99659.25;;;0.97;79.23
33422;BME280;19763;55.798;37.782;2022-11-04T06:08:58;99655.00;;;0.98;79.76
33422;BME280;19763;55.798;37.782;2022-11-04T06:11:26;99637.09;;;0.95;79.75
33422;BME280;19763;55.798;37.782;2022-11-04T06:13:56;99651.66;;;1.00;79.14
33422;BME280;19763;55.798;37.782;2022-11-04T06:16:22;99654.16;;;0.97;79.32
33422;BME280;19763;55.798;37.782;2022-11-04T06:18:48;99659.34;;;1.03;79.11
33422;BME280;19763;55.798;37.782;2022-11-04T06:23:43;99655.22;;;1.10;79.36
33422;BME280;19763;55.798;37.782;2022-11-04T06:26:10;99654.97;;;0.96;79.22
33422;BME280;19763;55.798;37.782;2022-11-04T06:28:36;99661.97;;;1.08;79.25
33422;BME280;19763;55.798;37.782;2022-11-04T06:31:05;99649.94;;;1.01;79.53
33422;BME280;19763;55.798;37.782;2022-11-04T06:33:31;99661.91;;;1.05;79.61
33422;BME280;19763;55.798;37.782;2022-11-04T06:36:02;99658.56;;;1.08;79.01
33422;BME280;19763;55.798;37.782;2022-11-04T06:38:30;99665.28;;;1.04;79.67
33422;BME280;19763;55.798;37.782;2022-11-04T06:40:56;99666.91;;;0.99;79.86
33422;BME280;19763;55.798;37.782;2022-11-04T06:43:22;99666.94;;;1.00;80.37
33422;BME280;19763;55.798;37.782;2022-11-04T06:45:54;99672.13;;;1.05;81.07
33422;BME280;19763;55.798;37.782;2022-11-04T06:48:20;99674.50;;;0.94;79.65
33422;BME280;19763;55.798;37.782;2022-11-04T06:50:45;99676.91;;;0.88;80.46
33422;BME280;19763;55.798;37.782;2022-11-04T06:53:11;99679.56;;;0.93;79.91
33422;BME280;19763;55.798;37.782;2022-11-04T06:55:37;99664.19;;;0.90;80.82
33422;BME280;19763;55.798;37.782;2022-11-04T06:58:02;99678.94;;;1.06;80.27
33422;BME280;19763;55.798;37.782;2022-11-04T07:00:28;99678.09;;;1.06;80.92
33422;BME280;19763;55.798;37.782;2022-11-04T07:02:54;99673.84;;;1.06;80.67
33422;BME280;19763;55.798;37.782;2022-11-04T07:05:19;99681.41;;;1.00;81.06
33422;BME280;19763;55.798;37.782;2022-11-04T07:07:45;99676.38;;;1.06;80.94
33422;BME280;19763;55.798;37.782;2022-11-04T07:10:10;99680.56;;;1.02;81.15
33422;BME280;19763;55.798;37.782;2022-11-04T07:12:36;99682.34;;;1.08;80.81
33422;BME280;19763;55.798;37.782;2022-11-04T07:15:03;99690.88;;;1.07;81.00
33422;BME280;19763;55.798;37.782;2022-11-04T07:17:29;99691.81;;;1.14;81.35
33422;BME280;19763;55.798;37.782;2022-11-04T07:19:54;99691.94;;;1.22;81.41
33422;BME280;19763;55.798;37.782;2022-11-04T07:22:20;99693.59;;;1.19;80.89
33422;BME280;19763;55.798;37.782;2022-11-04T07:24:46;99693.63;;;1.21;81.18
33422;BME280;19763;55.798;37.782;2022-11-04T07:27:11;99689.41;;;1.22;81.23
33422;BME280;19763;55.798;37.782;2022-11-04T07:29:37;99693.41;;;1.07;81.87
33422;BME280;19763;55.798;37.782;2022-11-04T07:32:03;99689.28;;;1.15;81.47
33422;BME280;19763;55.798;37.782;2022-11-04T07:34:29;99684.88;;;1.07;81.26
33422;BME280;19763;55.798;37.782;2022-11-04T07:36:54;99685.06;;;1.17;81.26
33422;BME280;19763;55.798;37.782;2022-11-04T07:39:20;99677.56;;;1.27;81.30
33422;BME280;19763;55.798;37.782;2022-11-04T07:41:45;99683.53;;;1.26;80.24
33422;BME280;19763;55.798;37.782;2022-11-04T07:44:11;99690.44;;;1.33;80.45
33422;BME280;19763;55.798;37.782;2022-11-04T07:46:37;99679.19;;;1.20;81.09
33422;BME280;19763;55.798;37.782;2022-11-04T07:49:03;99678.31;;;1.21;81.09
33422;BME280;19763;55.798;37.782;2022-11-04T07:51:29;99683.41;;;1.19;80.54
33422;BME280;19763;55.798;37.782;2022-11-04T07:53:57;99687.03;;;1.34;80.91
33422;BME280;19763;55.798;37.782;2022-11-04T07:56:23;99680.19;;;1.30;81.64
33422;BME280;19763;55.798;37.782;2022-11-04T07:58:49;99676.00;;;1.35;80.76
33422;BME280;19763;55.798;37.782;2022-11-04T08:01:18;99678.78;;;1.49;80.19
33422;BME280;19763;55.798;37.782;2022-11-04T08:03:45;99671.72;;;1.34;81.01
33422;BME280;19763;55.798;37.782;2022-11-04T08:06:14;99670.84;;;1.32;80.41
33422;BME280;19763;55.798;37.782;2022-11-04T08:08:40;99686.19;;;1.35;80.05
33422;BME280;19763;55.798;37.782;2022-11-04T08:11:18;99684.44;;;1.32;79.76
33422;BME280;19763;55.798;37.782;2022-11-04T08:13:45;99679.97;;;1.17;80.50
33422;BME280;19763;55.798;37.782;2022-11-04T08:16:13;99681.06;;;1.32;80.33
33422;BME280;19763;55.798;37.782;2022-11-04T08:18:40;99679.25;;;1.25;80.89
33422;BME280;19763;55.798;37.782;2022-11-04T08:21:06;99664.91;;;1.31;80.80
33422;BME280;19763;55.798;37.782;2022-11-04T08:23:32;99667.34;;;1.27;80.36
33422;BME280;19763;55.798;37.782;2022-11-04T08:25:59;99693.16;;;1.45;81.34
33422;BME280;19763;55.798;37.782;2022-11-04T08:28:25;99680.34;;;1.41;80.70
33422;BME280;19763;55.798;37.782;2022-11-04T08:33:17;99684.59;;;1.40;80.36
33422;BME280;19763;55.798;37.782;2022-11-04T08:35:43;99676.03;;;1.38;79.47
33422;BME280;19763;55.798;37.782;2022-11-04T08:38:08;99679.56;;;1.46;80.20
33422;BME280;19763;55.798;37.782;2022-11-04T08:40:35;99650.44;;;1.32;79.63
33422;BME280;19763;55.798;37.782;2022-11-04T08:43:01;99680.56;;;1.54;80.16
33422;BME280;19763;55.798;37.782;2022-11-04T08:45:27;99677.09;;;1.51;80.57
33422;BME280;19763;55.798;37.782;2022-11-04T08:47:52;99675.28;;;1.44;80.08
33422;BME280;19763;55.798;37.782;2022-11-04T08:50:18;99665.00;;;1.39;80.16
33422;BME280;19763;55.798;37.782;2022-11-04T08:52:44;99673.56;;;1.41;79.89
33422;BME280;19763;55.798;37.782;2022-11-04T08:55:09;99673.72;;;1.52;80.55
33422;BME280;19763;55.798;37.782;2022-11-04T08:57:35;99666.53;;;1.28;79.39
33422;BME280;19763;55.798;37.782;2022-11-04T09:00:02;99663.25;;;1.36;79.87
33422;BME280;19763;55.798;37.782;2022-11-04T09:02:29;99670.19;;;1.45;79.92
33422;BME280;19763;55.798;37.782;2022-11-04T09:04:55;99665.84;;;1.38;79.59
33422;BME280;19763;55.798;37.782;2022-11-04T09:07:20;99673.44;;;1.35;79.86
33422;BME280;19763;55.798;37.782;2022-11-04T09:09:46;99675.94;;;1.32;80.15
33422;BME280;19763;55.798;37.782;2022-11-04T09:12:12;99679.31;;;1.31;80.82
33422;BME280;19763;55.798;37.782;2022-11-04T09:14:38;99683.69;;;1.38;80.48
33422;BME280;19763;55.798;37.782;2022-11-04T09:17:03;99686.94;;;1.28;80.35
33422;BME280;19763;55.798;37.782;2022-11-04T09:19:29;99675.16;;;1.36;80.14
33422;BME280;19763;55.798;37.782;2022-11-04T09:21:55;99676.16;;;1.44;80.49
33422;BME280;19763;55.798;37.782;2022-11-04T09:24:20;99677.91;;;1.48;81.24
33422;BME280;19763;55.798;37.782;2022-11-04T09:26:46;99674.47;;;1.46;80.96
33422;BME280;19763;55.798;37.782;2022-11-04T09:29:11;99676.16;;;1.44;80.23
33422;BME280;19763;55.798;37.782;2022-11-04T09:31:37;99671.22;;;1.57;80.19
33422;BME280;19763;55.798;37.782;2022-11-04T09:34:03;99672.72;;;1.42;80.13
33422;BME280;19763;55.798;37.782;2022-11-04T09:36:29;99676.38;;;1.60;80.55
33422;BME280;19763;55.798;37.782;2022-11-04T09:38:54;99670.34;;;1.54;80.43
33422;BME280;19763;55.798;37.782;2022-11-04T09:44:20;99673.63;;;1.46;80.35
33422;BME280;19763;55.798;37.782;2022-11-04T09:46:48;99675.22;;;1.41;80.20
33422;BME280;19763;55.798;37.782;2022-11-04T09:49:14;99674.19;;;1.28;81.10
33422;BME280;19763;55.798;37.782;2022-11-04T09:51:41;99672.84;;;1.51;80.97
33422;BME280;19763;55.798;37.782;2022-11-04T09:54:21;99671.91;;;1.46;80.62
33422;BME280;19763;55.798;37.782;2022-11-04T09:56:49;99656.50;;;1.38;80.17
33422;BME280;19763;55.798;37.782;2022-11-04T09:59:20;99666.00;;;1.47;80.29
33422;BME280;19763;55.798;37.782;2022-11-04T10:12:40;99676.56;;;1.73;80.03
33422;BME280;19763;55.798;37.782;2022-11-04T10:20:59;99677.31;;;1.66;81.10
33422;BME280;19763;55.798;37.782;2022-11-04T10:29:05;99682.66;;;1.82;80.38
33422;BME280;19763;55.798;37.782;2022-11-04T10:31:36;99671.53;;;1.78;80.09
33422;BME280;19763;55.798;37.782;2022-11-04T10:34:06;99647.56;;;1.67;79.88
33422;BME280;19763;55.798;37.782;2022-11-04T10:36:34;99670.88;;;1.92;79.46
33422;BME280;19763;55.798;37.782;2022-11-04T10:39:05;99655.50;;;1.88;79.90
33422;BME280;19763;55.798;37.782;2022-11-04T10:41:39;99650.47;;;1.95;78.71
33422;BME280;19763;55.798;37.782;2022-11-04T10:44:09;99654.63;;;1.88;77.80
33422;BME280;19763;55.798;37.782;2022-11-04T10:46:50;99671.06;;;2.07;78.27
33422;BME280;19763;55.798;37.782;2022-11-04T10:52:05;99653.94;;;2.00;77.91
33422;BME280;19763;55.798;37.782;2022-11-04T10:54:40;99640.25;;;1.95;77.27
33422;BME280;19763;55.798;37.782;2022-11-04T10:57:06;99664.16;;;2.00;78.04
33422;BME280;19763;55.798;37.782;2022-11-04T11:02:10;99661.88;;;2.21;78.10
33422;BME280;19763;55.798;37.782;2022-11-04T11:04:37;99664.41;;;2.18;78.00
33422;BME280;19763;55.798;37.782;2022-11-04T11:07:07;99672.84;;;2.11;77.28
33422;BME280;19763;55.798;37.782;2022-11-04T11:12:17;99675.38;;;2.10;78.49
33422;BME280;19763;55.798;37.782;2022-11-04T11:14:44;99677.78;;;1.99;77.88
33422;BME280;19763;55.798;37.782;2022-11-04T11:19:59;99678.63;;;2.01;78.40
33422;BME280;19763;55.798;37.782;2022-11-04T11:25:20;99679.63;;;2.11;78.87
33422;BME280;19763;55.798;37.782;2022-11-04T11:30:32;99677.16;;;2.18;78.19
33422;BME280;19763;55.798;37.782;2022-11-04T11:35:49;99670.13;;;2.02;77.97
33422;BME280;19763;55.798;37.782;2022-11-04T11:38:26;99669.28;;;2.00;78.20
33422;BME280;19763;55.798;37.782;2022-11-04T11:41:06;99678.72;;;2.05;77.89
33422;BME280;19763;55.798;37.782;2022-11-04T11:43:34;99671.09;;;2.09;78.55
33422;BME280;19763;55.798;37.782;2022-11-04T11:46:01;99689.03;;;2.15;78.16
33422;BME280;19763;55.798;37.782;2022-11-04T11:48:50;99688.16;;;2.11;78.02
33422;BME280;19763;55.798;37.782;2022-11-04T11:51:42;99691.59;;;2.16;78.03
33422;BME280;19763;55.798;37.782;2022-11-04T11:54:29;99674.31;;;1.95;78.40
33422;BME280;19763;55.798;37.782;2022-11-04T11:57:16;99688.06;;;2.05;78.73
33422;BME280;19763;55.798;37.782;2022-11-04T11:59:51;99693.16;;;2.05;79.01
33422;BME280;19763;55.798;37.782;2022-11-04T12:04:49;99702.63;;;2.12;78.21
33422;BME280;19763;55.798;37.782;2022-11-04T12:07:39;99701.84;;;2.18;78.43
33422;BME280;19763;55.798;37.782;2022-11-04T12:10:37;99700.06;;;2.12;78.78
33422;BME280;19763;55.798;37.782;2022-11-04T12:13:19;99698.31;;;2.08;78.30
33422;BME280;19763;55.798;37.782;2022-11-04T12:15:52;99706.72;;;1.99;78.33
33422;BME280;19763;55.798;37.782;2022-11-04T12:18:46;99704.31;;;2.10;78.56
33422;BME280;19763;55.798;37.782;2022-11-04T12:21:38;99705.09;;;2.06;79.12
33422;BME280;19763;55.798;37.782;2022-11-04T12:35:55;99699.03;;;1.99;78.78
33422;BME280;19763;55.798;37.782;2022-11-04T12:40:37;99706.56;;;1.87;78.85
33422;BME280;19763;55.798;37.782;2022-11-04T12:50:53;99700.75;;;1.99;79.33
33422;BME280;19763;55.798;37.782;2022-11-04T12:56:10;99691.97;;;1.78;79.86
33422;BME280;19763;55.798;37.782;2022-11-04T13:01:37;99684.38;;;1.83;79.40
33422;BME280;19763;55.798;37.782;2022-11-04T13:04:15;99678.44;;;1.85;79.33
33422;BME280;19763;55.798;37.782;2022-11-04T13:07:04;99712.78;;;2.07;79.30
33422;BME280;19763;55.798;37.782;2022-11-04T13:09:57;99717.03;;;2.07;79.37
33422;BME280;19763;55.798;37.782;2022-11-04T13:12:25;99699.81;;;1.92;79.56
33422;BME280;19763;55.798;37.782;2022-11-04T13:15:02;99722.13;;;2.05;79.59
33422;BME280;19763;55.798;37.782;2022-11-04T13:17:35;99679.25;;;1.81;79.78
33422;BME280;19763;55.798;37.782;2022-11-04T13:20:16;99706.72;;;2.01;79.68
33422;BME280;19763;55.798;37.782;2022-11-04T13:22:47;99706.81;;;2.05;79.56
33422;BME280;19763;55.798;37.782;2022-11-04T13:27:58;99721.44;;;2.17;80.06
33422;BME280;19763;55.798;37.782;2022-11-04T13:36:03;99726.38;;;2.05;79.75
33422;BME280;19763;55.798;37.782;2022-11-04T13:38:43;99717.66;;;1.90;80.07
33422;BME280;19763;55.798;37.782;2022-11-04T13:44:14;99731.34;;;1.94;80.56
33422;BME280;19763;55.798;37.782;2022-11-04T13:46:53;99728.81;;;1.96;80.46
33422;BME280;19763;55.798;37.782;2022-11-04T13:49:25;99740.03;;;2.07;80.58
33422;BME280;19763;55.798;37.782;2022-11-04T13:52:06;99743.44;;;2.07;80.37
33422;BME280;19763;55.798;37.782;2022-11-04T13:57:22;99746.66;;;1.94;80.47
33422;BME280;19763;55.798;37.782;2022-11-04T14:02:41;99727.03;;;1.90;80.40
33422;BME280;19763;55.798;37.782;2022-11-04T14:16:03;99762.06;;;2.00;80.94
33422;BME280;19763;55.798;37.782;2022-11-04T14:18:31;99750.91;;;1.94;80.71
33422;BME280;19763;55.798;37.782;2022-11-04T14:21:21;99758.66;;;2.00;80.52
33422;BME280;19763;55.798;37.782;2022-11-04T14:23:57;99739.78;;;1.88;80.29
33422;BME280;19763;55.798;37.782;2022-11-04T14:26:41;99748.25;;;1.87;80.87
33422;BME280;19763;55.798;37.782;2022-11-04T14:29:18;99758.44;;;1.86;81.03
33422;BME280;19763;55.798;37.782;2022-11-04T14:31:54;99755.06;;;1.87;81.15
33422;BME280;19763;55.798;37.782;2022-11-04T14:34:40;99765.47;;;2.01;81.03
33422;BME280;19763;55.798;37.782;2022-11-04T14:37:21;99756.00;;;1.94;80.97
33422;BME280;19763;55.798;37.782;2022-11-04T14:39:59;99757.81;;;2.01;80.86
33422;BME280;19763;55.798;37.782;2022-11-04T14:42:47;99769.81;;;2.08;81.00
33422;BME280;19763;55.798;37.782;2022-11-04T14:45:37;99773.34;;;2.15;80.71
33422;BME280;19763;55.798;37.782;2022-11-04T14:48:16;99781.94;;;2.21;80.89
33422;BME280;19763;55.798;37.782;2022-11-04T14:50:45;99780.13;;;2.11;80.55
33422;BME280;19763;55.798;37.782;2022-11-04T14:53:21;99756.13;;;2.01;80.40
33422;BME280;19763;55.798;37.782;2022-11-04T14:56:02;99777.56;;;2.13;80.08
33422;BME280;19763;55.798;37.782;2022-11-04T14:58:28;99777.56;;;2.13;79.99
33422;BME280;19763;55.798;37.782;2022-11-04T15:01:03;99786.06;;;2.10;80.80
33422;BME280;19763;55.798;37.782;2022-11-04T15:03:34;99764.78;;;2.10;79.91
33422;BME280;19763;55.798;37.782;2022-11-04T15:06:03;99775.09;;;2.19;80.23
33422;BME280;19763;55.798;37.782;2022-11-04T15:13:43;99790.25;;;2.06;80.36
33422;BME280;19763;55.798;37.782;2022-11-04T15:16:20;99799.00;;;2.22;80.09
33422;BME280;19763;55.798;37.782;2022-11-04T15:18:48;99796.50;;;2.26;80.15
33422;BME280;19763;55.798;37.782;2022-11-04T15:21:14;99795.59;;;2.23;80.59
33422;BME280;19763;55.798;37.782;2022-11-04T15:23:46;99780.97;;;2.13;80.15
33422;BME280;19763;55.798;37.782;2022-11-04T15:26:30;99804.19;;;2.29;80.08
33422;BME280;19763;55.798;37.782;2022-11-04T15:28:59;99799.13;;;2.32;80.10
33422;BME280;19763;55.798;37.782;2022-11-04T15:31:30;99788.81;;;2.24;80.16
33422;BME280;19763;55.798;37.782;2022-11-04T15:34:06;99805.03;;;2.29;80.31
33422;BME280;19763;55.798;37.782;2022-11-04T15:36:40;99788.41;;;1.98;80.37
33422;BME280;19763;55.798;37.782;2022-11-04T15:41:38;99818.50;;;2.17;80.74
33422;BME280;19763;55.798;37.782;2022-11-04T15:44:28;99817.56;;;2.11;80.17
33422;BME280;19763;55.798;37.782;2022-11-04T15:47:00;99811.63;;;2.13;80.05